createdAt,value
2022-12-01T00:03:35.008Z,0.89
2022-12-01T00:07:37.715Z,0.86
2022-12-01T00:11:40.376Z,0.81
2022-12-01T00:15:43.018Z,0.83
2022-12-01T00:19:47.310Z,0.81
2022-12-01T00:23:52.478Z,0.79
2022-12-01T00:27:55.473Z,0.75
2022-12-01T00:31:58.713Z,0.73
2022-12-01T00:36:03.444Z,0.77
2022-12-01T00:40:08.066Z,0.73
2022-12-01T00:44:10.857Z,0.70
2022-12-01T00:48:13.634Z,0.71
2022-12-01T00:52:18.153Z,0.72
2022-12-01T00:56:21.330Z,0.70
2022-12-01T01:00:23.986Z,0.68
2022-12-01T01:04:26.677Z,0.69
2022-12-01T01:08:30.721Z,0.65
2022-12-01T01:12:33.396Z,0.64
2022-12-01T01:16:36.288Z,0.58
2022-12-01T01:20:39.027Z,0.57
2022-12-01T01:24:43.014Z,0.50
2022-12-01T01:28:46.010Z,0.52
2022-12-01T01:32:48.680Z,0.48
2022-12-01T01:36:51.447Z,0.42
2022-12-01T01:40:55.821Z,0.37
2022-12-01T01:44:59.978Z,0.36
2022-12-01T01:49:07.941Z,0.31
2022-12-01T01:53:15.385Z,0.29
2022-12-01T01:57:24.873Z,0.27
2022-12-01T02:01:27.630Z,0.22
2022-12-01T02:05:33.390Z,0.16
2022-12-01T02:09:36.624Z,0.13
2022-12-01T02:13:51.293Z,0.07
2022-12-01T02:18:07.239Z,0.02
2022-12-01T02:22:24.791Z,-0.02
2022-12-01T02:26:40.394Z,-0.04
2022-12-01T02:30:48.790Z,-0.04
2022-12-01T02:34:58.718Z,-0.03
2022-12-01T02:39:08.843Z,-0.05
2022-12-01T02:43:17.231Z,-0.09
2022-12-01T02:47:21.855Z,-0.08
2022-12-01T02:51:29.089Z,-0.14
2022-12-01T02:55:31.796Z,-0.17
2022-12-01T02:59:34.433Z,-0.28
2022-12-01T03:03:58.528Z,-0.26
2022-12-01T03:08:07.420Z,-0.33
2022-12-01T03:12:20.917Z,-0.35
2022-12-01T03:16:32.832Z,-0.42
2022-12-01T03:20:41.399Z,-0.46
2022-12-01T03:24:48.393Z,-0.40
2022-12-01T03:28:55.999Z,-0.38
2022-12-01T03:33:05.021Z,-0.39
2022-12-01T03:37:14.645Z,-0.35
2022-12-01T03:41:21.130Z,-0.33
2022-12-01T03:45:31.425Z,-0.25
2022-12-01T03:49:35.213Z,-0.26
2022-12-01T03:53:49.874Z,-0.22
2022-12-01T03:57:57.497Z,-0.17
2022-12-01T04:02:00.255Z,-0.08
2022-12-01T04:06:03.086Z,-0.06
2022-12-01T04:10:08.961Z,-0.02
2022-12-01T04:14:11.662Z,-0.02
2022-12-01T04:18:14.392Z,-0.02
2022-12-01T04:22:17.098Z,0.01
2022-12-01T04:26:21.177Z,-0.03
2022-12-01T04:30:23.892Z,-0.02
2022-12-01T04:34:26.552Z,-0.03
2022-12-01T04:38:30.985Z,-0.02
2022-12-01T04:42:35.193Z,-0.08
2022-12-01T04:46:37.976Z,-0.10
2022-12-01T04:50:42.044Z,-0.16
2022-12-01T04:54:44.751Z,-0.16
2022-12-01T04:58:48.989Z,-0.16
2022-12-01T05:02:51.718Z,-0.15
2022-12-01T05:06:55.594Z,-0.21
2022-12-01T05:10:58.900Z,-0.26
2022-12-01T05:15:03.022Z,-0.28
2022-12-01T05:19:24.351Z,-0.32
2022-12-01T05:23:28.659Z,-0.34
2022-12-01T05:27:31.374Z,-0.34
2022-12-01T05:31:35.793Z,-0.42
2022-12-01T05:35:38.516Z,-0.43
2022-12-01T05:39:41.257Z,-0.42
2022-12-01T05:43:43.991Z,-0.43
2022-12-01T05:47:48.662Z,-0.40
2022-12-01T05:51:51.539Z,-0.38
2022-12-01T05:55:54.820Z,-0.33
2022-12-01T05:59:57.532Z,-0.31
2022-12-01T06:04:01.583Z,-0.27
2022-12-01T06:08:04.359Z,-0.28
2022-12-01T06:12:07.368Z,-0.26
2022-12-01T06:16:10.148Z,-0.28
2022-12-01T06:20:14.727Z,-0.27
2022-12-01T06:24:17.427Z,-0.24
2022-12-01T06:28:20.253Z,-0.22
2022-12-01T06:32:22.929Z,-0.23
2022-12-01T06:36:27.007Z,-0.17
2022-12-01T06:40:29.712Z,-0.21
2022-12-01T06:44:33.205Z,-0.19
2022-12-01T06:48:36.042Z,-0.15
2022-12-01T06:52:40.069Z,-0.14
2022-12-01T06:56:43.217Z,-0.14
2022-12-01T07:00:51.743Z,-0.16
2022-12-01T07:04:54.913Z,-0.15
2022-12-01T07:08:59.143Z,-0.09
2022-12-01T07:13:01.880Z,-0.03
2022-12-01T07:17:05.252Z,0.00
2022-12-01T07:21:12.660Z,0.03
2022-12-01T07:25:16.913Z,0.07
2022-12-01T07:29:19.747Z,0.16
2022-12-01T07:33:23.164Z,0.20
2022-12-01T07:37:26.142Z,0.21
2022-12-01T07:41:30.141Z,0.62
2022-12-01T07:45:32.786Z,1.52
2022-12-01T07:49:35.541Z,1.93
2022-12-01T07:53:39.254Z,1.43
2022-12-01T07:57:43.321Z,1.24
2022-12-01T08:01:46.350Z,0.99
2022-12-01T08:05:58.060Z,0.89
2022-12-01T08:10:00.785Z,0.94
2022-12-01T08:14:04.829Z,1.00
2022-12-01T08:18:08.149Z,1.14
2022-12-01T08:22:10.805Z,1.23
2022-12-01T08:26:16.140Z,1.20
2022-12-01T08:30:20.229Z,1.29
2022-12-01T08:34:22.926Z,1.46
2022-12-01T08:38:25.610Z,1.92
2022-12-01T08:42:28.400Z,2.19
2022-12-01T08:46:35.760Z,2.68
2022-12-01T08:50:38.577Z,2.88
2022-12-01T08:54:41.290Z,2.85
2022-12-01T08:58:43.997Z,2.66
2022-12-01T09:02:48.247Z,2.31
2022-12-01T09:06:52.714Z,2.17
2022-12-01T09:10:55.329Z,2.15
2022-12-01T09:14:58.063Z,2.44
2022-12-01T09:19:02.742Z,2.92
2022-12-01T09:23:05.363Z,3.26
2022-12-01T09:27:08.184Z,3.39
2022-12-01T09:31:13.320Z,3.34
2022-12-01T09:35:23.046Z,3.29
2022-12-01T09:39:26.453Z,3.58
2022-12-01T09:43:35.251Z,3.83
2022-12-01T09:47:40.069Z,3.87
2022-12-01T09:51:44.275Z,3.83
2022-12-01T09:55:47.438Z,3.57
2022-12-01T09:59:52.853Z,3.69
2022-12-01T10:03:58.953Z,4.02
2022-12-01T10:08:06.553Z,4.30
2022-12-01T10:12:15.137Z,4.12
2022-12-01T10:16:26.460Z,3.99
2022-12-01T10:20:37.050Z,3.86
2022-12-01T10:24:55.073Z,3.85
2022-12-01T10:29:12.983Z,3.72
2022-12-01T10:33:25.119Z,3.72
2022-12-01T10:37:31.069Z,3.77
2022-12-01T10:41:38.711Z,3.79
2022-12-01T10:45:44.999Z,3.79
2022-12-01T10:49:48.024Z,3.78
2022-12-01T10:53:52.352Z,3.61
2022-12-01T10:58:04.719Z,3.70
2022-12-01T11:02:17.296Z,3.74
2022-12-01T11:06:23.811Z,3.87
2022-12-01T11:10:28.690Z,3.86
2022-12-01T11:14:42.256Z,3.86
2022-12-01T11:18:45.010Z,3.75
2022-12-01T11:22:47.672Z,3.82
2022-12-01T11:26:50.397Z,3.85
2022-12-01T11:30:58.543Z,3.81
2022-12-01T11:35:04.504Z,3.78
2022-12-01T11:39:07.225Z,3.80
2022-12-01T11:43:25.675Z,3.73
2022-12-01T11:47:29.995Z,3.69
2022-12-01T11:51:37.452Z,3.61
2022-12-01T11:55:40.282Z,3.63
2022-12-01T11:59:42.937Z,3.61
2022-12-01T12:03:58.836Z,3.64
2022-12-01T12:08:10.987Z,3.65
2022-12-01T12:12:26.258Z,3.60
2022-12-01T12:16:39.029Z,3.78
2022-12-01T12:20:58.022Z,4.52
2022-12-01T12:25:20.814Z,4.51
2022-12-01T12:29:42.590Z,4.80
2022-12-01T12:34:05.735Z,4.51
2022-12-01T12:38:17.520Z,4.62
2022-12-01T12:42:32.567Z,4.42
2022-12-01T12:46:46.852Z,4.28
2022-12-01T12:50:57.505Z,4.26
2022-12-01T12:55:04.939Z,4.08
2022-12-01T12:59:13.024Z,3.88
2022-12-01T13:03:22.216Z,3.76
2022-12-01T13:07:35.557Z,3.72
2022-12-01T13:11:45.398Z,3.68
2022-12-01T13:15:50.177Z,3.68
2022-12-01T13:19:52.922Z,3.68
2022-12-01T13:23:55.837Z,3.86
2022-12-01T13:28:04.000Z,3.76
2022-12-01T13:32:08.423Z,3.70
2022-12-01T13:36:45.336Z,3.65
2022-12-01T13:40:36.790Z,3.67
2022-12-01T13:44:43.066Z,3.69
2022-12-01T13:48:53.678Z,3.67
2022-12-01T13:53:12.150Z,3.68
2022-12-01T13:57:26.779Z,3.66
2022-12-01T14:01:49.033Z,3.65
2022-12-01T14:05:57.107Z,3.65
2022-12-01T14:10:30.090Z,3.66
2022-12-01T14:14:38.462Z,3.66
2022-12-01T14:18:45.233Z,3.64
2022-12-01T14:22:50.953Z,3.67
2022-12-01T14:26:54.015Z,3.64
2022-12-01T14:31:03.864Z,3.63
2022-12-01T14:35:14.895Z,3.59
2022-12-01T14:39:21.717Z,3.55
2022-12-01T14:43:44.473Z,3.59
2022-12-01T14:47:53.690Z,3.59
2022-12-01T14:52:05.414Z,3.58
2022-12-01T14:56:12.305Z,3.58
2022-12-01T15:00:17.949Z,3.64
2022-12-01T15:04:20.919Z,3.64
2022-12-01T15:08:53.194Z,3.61
2022-12-01T15:12:51.962Z,3.60
2022-12-01T15:16:54.757Z,3.60
2022-12-01T17:26:21.852Z,3.06
2022-12-01T17:30:25.279Z,3.12
2022-12-01T17:34:28.308Z,3.11
2022-12-01T17:38:31.154Z,3.05
2022-12-01T17:42:35.540Z,3.08
2022-12-01T17:46:38.476Z,3.07
2022-12-01T17:50:41.628Z,3.11
2022-12-01T17:54:44.426Z,3.09
2022-12-01T17:58:50.547Z,3.04
2022-12-01T18:02:53.463Z,3.05
2022-12-01T18:06:56.269Z,3.07
2022-12-01T18:11:02.153Z,3.13
2022-12-01T18:15:08.166Z,3.11
2022-12-01T18:19:11.654Z,3.15
2022-12-01T18:23:14.407Z,3.16
2022-12-01T18:27:17.218Z,3.19
2022-12-01T18:31:21.659Z,3.14
2022-12-01T18:35:28.822Z,3.12
2022-12-01T18:39:34.904Z,3.10
2022-12-01T18:43:38.196Z,3.06
2022-12-01T18:47:42.354Z,3.07
2022-12-01T18:51:45.059Z,3.03
2022-12-01T18:55:47.733Z,3.07
2022-12-01T18:59:51.094Z,3.08
2022-12-01T19:03:57.792Z,3.12
2022-12-01T19:08:00.728Z,3.13
2022-12-01T19:12:03.458Z,3.20
2022-12-01T19:16:07.771Z,3.22
2022-12-01T19:20:13.396Z,3.17
2022-12-01T19:24:16.483Z,3.16
2022-12-01T19:28:19.225Z,3.16
2022-12-01T19:32:22.247Z,3.12
2022-12-01T19:36:28.292Z,3.11
2022-12-01T19:40:30.989Z,3.13
2022-12-01T19:44:33.704Z,3.12
2022-12-01T19:48:36.866Z,3.09
2022-12-01T19:52:41.736Z,3.06
2022-12-01T19:56:45.005Z,3.05
2022-12-01T20:00:47.995Z,3.06
2022-12-01T20:04:51.153Z,3.05
2022-12-01T20:08:56.635Z,3.00
2022-12-01T20:12:59.322Z,2.98
2022-12-01T20:17:02.305Z,2.99
2022-12-01T20:21:07.450Z,2.95
2022-12-01T20:25:11.620Z,2.91
2022-12-01T20:29:17.007Z,2.92
2022-12-01T20:33:19.697Z,2.91
2022-12-01T20:37:22.605Z,2.89
2022-12-01T20:41:26.645Z,2.82
2022-12-01T20:45:29.550Z,2.82
2022-12-01T20:49:32.970Z,2.82
2022-12-01T20:53:36.675Z,2.84
2022-12-01T20:57:40.743Z,2.78
2022-12-01T21:01:43.723Z,2.72
2022-12-01T21:05:46.418Z,2.68
2022-12-01T21:09:49.344Z,2.66
2022-12-01T21:13:54.031Z,2.64
2022-12-01T21:18:00.137Z,2.60
2022-12-01T21:22:03.021Z,2.62
2022-12-01T21:26:10.612Z,2.65
2022-12-01T21:30:21.957Z,2.57
2022-12-01T21:34:25.966Z,2.62
2022-12-01T21:38:28.985Z,2.64
2022-12-01T21:42:32.809Z,2.62
2022-12-01T21:46:39.716Z,2.63
2022-12-01T21:50:42.550Z,2.67
2022-12-01T21:54:45.397Z,2.63
2022-12-01T21:58:48.940Z,2.60
2022-12-01T22:02:59.502Z,2.60
2022-12-01T22:07:03.343Z,2.65
2022-12-01T22:11:11.671Z,2.60
2022-12-01T22:15:40.838Z,2.58
2022-12-01T22:19:47.885Z,2.53
2022-12-01T22:23:52.810Z,2.54
2022-12-01T22:27:58.170Z,2.52
2022-12-01T22:32:27.616Z,2.51
2022-12-01T22:36:33.343Z,2.51
2022-12-01T22:40:39.546Z,2.50
2022-12-01T22:44:44.968Z,2.47
2022-12-01T22:48:50.067Z,2.44
2022-12-01T22:52:55.037Z,2.42
2022-12-01T22:57:25.485Z,2.37
2022-12-01T23:01:30.363Z,2.36
2022-12-01T23:05:33.065Z,2.36
2022-12-01T23:09:42.899Z,2.32
2022-12-01T23:13:45.644Z,2.27
2022-12-01T23:17:48.787Z,2.28
2022-12-01T23:21:53.538Z,2.23
2022-12-01T23:25:57.865Z,2.27
2022-12-01T23:30:00.533Z,2.30
2022-12-01T23:34:03.156Z,2.25
2022-12-01T23:38:06.829Z,2.21
2022-12-01T23:42:13.784Z,2.18
2022-12-01T23:46:19.407Z,2.16
2022-12-01T23:50:24.369Z,2.13
2022-12-01T23:54:30.188Z,2.14
2022-12-01T23:58:35.121Z,2.10
